Airfield :
LOGIN :

Register | Disclaimer

   EN    FR    IT 

 










Legend :    VFR   Marginal VFR   IFR   Intensive IFR   Very Intensive IFR
Visi :
Ceiling :
>= 8 km
>= 3000ft
5 to 8 km
1000 to 3000 ft
1500m to 5 km
500 to 1000 ft
800 to 1500m
200 to 500 ft
< 800m
< 200 ft
Symbols :   Thunderstorms  Fog  Heavy snow  Heavy precipitations  Wind > 20 kt
SIGMETs :     Misc.  Thunderstorms  Icing  Turbulence  Mountain Waves  Volcanic Ashes






- Airport Elevation : 1300 ft
- IATA code : LIG


LFBL - Limoges

CURRENT METAR :
  • 271430Z AUTO 26016G27KT 230V290 9999 OVC020 12/09 Q1007 TEMPO 27023G40KT 4000 -SHRA BKN012TCU

EXPIRED METARs :
  • 271400Z AUTO 27017G27KT 9999 BKN011 OVC016 11/09 Q1006 TEMPO 27023G40KT 4000 -SHRA BKN012TCU
  • 271330Z AUTO 27018G30KT 240V300 9999 BKN010 OVC014 11/10 Q1006 TEMPO 27023G40KT 4000 -SHRA BKN012TCU
  • 271300Z AUTO 27017G31KT 8000 OVC008 10/10 Q1005 TEMPO 4000 -SHRA BKN012TCU
  • 271230Z AUTO 27018G32KT 240V300 9999 OVC008 11/10 Q1005 TEMPO 4000 -SHRA BKN012TCU
  • 271200Z AUTO 27016G26KT 230V300 4200 1900 RA BR BKN006 OVC011 10/10 Q1005 TEMPO 27023G40KT 9999 -RA BKN012TCU

TAF AMD TAF LFBL
Valid from the 27 at 12:00 until the 28 at 12:00 UTC


271208Z 2712/2812 27018G28KT 9999 -RA BKN006
TEMPO 2712/2716 27023G40KT
BECMG 2712/2715 NSW BKN017
PROB30
TEMPO 2712/2717 4000 -SHRA BKN012TCU
BECMG 2718/2720 31008KT CAVOK
BECMG 2721/2723 VRB02KT
BECMG 2803/2805 12005KT
BECMG 2807/2809 BKN012
TEMPO 2809/2812 4000 -RA OVC006
ATIS : +33 5 55 48 40 37



MET'MAP, your aeronautical weather chart ! - Copyright ORBIFLY December 2007 - Disclaimer

ORBIFLY MET'MAP TEAM :

Programming & Development : Alexandra Zaïnal
Concept & original design : Baudouin d'Aumeries
Assistance for programming : Marc-Olivier Méhu
Technical & hardware support : Manuel Goepfert

Contact : metmap@orbifly.com




SOURCES & CREDITS :

   NOAA